Time;durP1;ratioP1;P1;durP2;ratioP2;P2;SDS_P1;SDS_P2;PMS_P1;PMS_P2;Temp;Humidity;BMP_temperature;BMP_pressure;BME280_temperature;BME280_humidity;BME280_pressure;Samples;Min_cycle;Max_cycle;Signal;HPM_P1;HPM_P2
2022/04/23 00:01:31;;;;;;;;;;;;;;;;;;5067194;28;19929;-75
2022/04/23 00:03:57;;;;;;;;;;;;;;;;;;5065175;28;19932;-75
2022/04/23 00:06:23;;;;;;;;;;;;;;;;;;5065874;28;19928;-75
2022/04/23 00:08:49;;;;;;;;;;;;;;;;;;5068198;28;19935;-75
2022/04/23 00:11:15;;;;;;;;;;;;;;;;;;5067091;28;19925;-75
2022/04/23 00:13:42;;;;;;;;;;;;;;;;;;5063740;28;19924;-75
2022/04/23 00:16:08;;;;;;;;;;;;;;;;;;5065973;28;19932;-75
2022/04/23 00:18:34;;;;;;;;;;;;;;;;;;5065812;28;19936;-72
2022/04/23 00:21:00;;;;;;;;;;;;;;;;;;5067824;28;19924;-74
2022/04/23 00:23:27;;;;;;;;;;;;;;;;;;5066964;28;20171;-73
2022/04/23 00:25:54;;;;;;;;;;;;;;;;;;5067889;28;19968;-74
2022/04/23 00:28:20;;;;;;;;;;;;;;;;;;5063913;28;20019;-73
2022/04/23 00:30:46;;;;;;;;;;;;;;;;;;5067517;28;19924;-73
2022/04/23 00:33:12;;;;;;;;;;;;;;;;;;5063057;28;20400;-74
2022/04/23 00:35:38;;;;;;;;;;;;;;;;;;5068306;28;19924;-73
2022/04/23 00:38:05;;;;;;;;;;;;;;;;;;5063172;28;19935;-72
2022/04/23 00:40:31;;;;;;;;;;;;;;;;;;5068610;28;19935;-71
2022/04/23 00:42:58;;;;;;;;;;;;;;;;;;5067985;28;19970;-73
2022/04/23 00:45:24;;;;;;;;;;;;;;;;;;5066248;28;20382;-73
2022/04/23 00:47:50;;;;;;;;;;;;;;;;;;5076997;28;19929;-73
2022/04/23 00:50:20;;;;;;;;;;;;;;;;;;5070365;28;19924;-72
2022/04/23 00:52:47;;;;;;;;;;;;;;;;;;5065655;28;20295;-75
2022/04/23 00:55:13;;;;;;;;;;;;;;;;;;5067493;28;20383;-73
2022/04/23 00:57:39;;;;;;;;;;;;;;;;;;5068147;28;20410;-72
2022/04/23 01:00:06;;;;;;;;;;;;;;;;;;5068313;28;20383;-73
2022/04/23 01:02:32;;;;;;;;;;;;;;;;;;5065106;28;20452;-72
2022/04/23 01:04:58;;;;;;;;;;;;;;;;;;5069952;28;20446;-75
2022/04/23 01:07:24;;;;;;;;;;;;;;;;;;5071649;28;20521;-74
2022/04/23 01:09:50;;;;;;;;;;;;;;;;;;5069245;28;19989;-74
2022/04/23 01:12:18;;;;;;;;;;;;;;;;;;5066315;28;19939;-73
2022/04/23 01:14:45;;;;;;;;;;;;;;;;;;5060268;28;19928;-73
2022/04/23 01:17:11;;;;;;;;;;;;;;;;;;5067771;28;20406;-73
2022/04/23 01:19:37;;;;;;;;;;;;;;;;;;5067173;28;19937;-73
2022/04/23 01:22:03;;;;;;;;;;;;;;;;;;5071243;28;20167;-73
2022/04/23 01:24:30;;;;;;;;;;;;;;;;;;5071059;28;20011;-73
2022/04/23 01:26:56;;;;;;;;;;;;;;;;;;5072298;28;20978;-73
2022/04/23 01:29:22;;;;;;;;;;;;;;;;;;5070863;28;20319;-73
2022/04/23 01:31:48;;;;;;;;;;;;;;;;;;5069599;28;20429;-73
2022/04/23 01:34:15;;;;;;;;;;;;;;;;;;5069412;28;20469;-73
2022/04/23 01:36:41;;;;;;;;;;;;;;;;;;5068599;28;20357;-73
2022/04/23 01:39:07;;;;;;;;;;;;;;;;;;5070964;28;20568;-73
2022/04/23 01:41:33;;;;;;;;;;;;;;;;;;5070336;28;19932;-73
2022/04/23 01:43:59;;;;;;;;;;;;;;;;;;5068945;28;20391;-73
2022/04/23 01:46:26;;;;;;;;;;;;;;;;;;5071326;28;19924;-74
2022/04/23 01:48:52;;;;;;;;;;;;;;;;;;5068234;28;20395;-75
2022/04/23 01:51:18;;;;;;;;;;;;;;;;;;5076477;28;19981;-74
2022/04/23 01:53:44;;;;;;;;;;;;;;;;;;5074372;28;19936;-76
2022/04/23 01:56:11;;;;;;;;;;;;;;;;;;5073763;28;19924;-75
2022/04/23 01:58:37;;;;;;;;;;;;;;;;;;5077121;28;19936;-75
2022/04/23 02:01:04;;;;;;;;;;;;;;;;;;5087919;28;19924;-73
2022/04/23 02:03:31;;;;;;;;;;;;;;;;;;5087466;28;19921;-73
2022/04/23 02:05:57;;;;;;;;;;;;;;;;;;5088409;28;19928;-73
2022/04/23 02:08:23;;;;;;;;;;;;;;;;;;5086361;28;19947;-74
2022/04/23 02:10:50;;;;;;;;;;;;;;;;;;5079640;28;19928;-73
2022/04/23 02:13:16;;;;;;;;;;;;;;;;;;5074676;28;19982;-73
2022/04/23 02:15:42;;;;;;;;;;;;;;;;;;5070399;28;19931;-73
2022/04/23 02:18:09;;;;;;;;;;;;;;;;;;5068380;28;19928;-72
2022/04/23 02:20:35;;;;;;;;;;;;;;;;;;5068855;28;19963;-73
2022/04/23 02:23:01;;;;;;;;;;;;;;;;;;5069387;28;19928;-73
2022/04/23 02:25:27;;;;;;;;;;;;;;;;;;5068841;28;19978;-73
2022/04/23 02:27:53;;;;;;;;;;;;;;;;;;5069484;28;19935;-73
2022/04/23 02:30:19;;;;;;;;;;;;;;;;;;5068149;28;19935;-73
2022/04/23 02:32:45;;;;;;;;;;;;;;;;;;5069104;28;19929;-72
2022/04/23 02:35:12;;;;;;;;;;;;;;;;;;5068293;28;19924;-73
2022/04/23 02:37:38;;;;;;;;;;;;;;;;;;5068553;28;19925;-73
2022/04/23 02:40:04;;;;;;;;;;;;;;;;;;5069534;28;20314;-73
2022/04/23 02:42:30;;;;;;;;;;;;;;;;;;5069667;28;19924;-74
2022/04/23 02:44:56;;;;;;;;;;;;;;;;;;5067253;28;20330;-72
2022/04/23 02:47:23;;;;;;;;;;;;;;;;;;5069350;28;19978;-72
2022/04/23 02:49:49;;;;;;;;;;;;;;;;;;5067837;28;20485;-72
2022/04/23 02:52:15;;;;;;;;;;;;;;;;;;5067912;28;19936;-72
2022/04/23 02:54:41;;;;;;;;;;;;;;;;;;5069745;28;20311;-74
2022/04/23 02:57:08;;;;;;;;;;;;;;;;;;5097897;22;20368;-64
2022/04/23 02:59:34;;;;;;;;;;;;;;;;;;5102575;28;19924;-63
2022/04/23 03:02:00;;;;;;;;;;;;;;;;;;5110938;28;19935;-63
2022/04/23 03:04:26;;;;;;;;;;;;;;;;;;5107555;28;20034;-65
2022/04/23 03:06:54;;;;;;;;;;;;;;;;;;5109797;28;19931;-64
2022/04/23 03:09:20;;;;;;;;;;;;;;;;;;5107630;28;19936;-64
2022/04/23 03:11:47;;;;;;;;;;;;;;;;;;5110080;28;19935;-64
2022/04/23 03:14:13;;;;;;;;;;;;;;;;;;5107044;28;19928;-64
2022/04/23 03:16:39;;;;;;;;;;;;;;;;;;5114409;27;19966;-64
2022/04/23 03:19:05;;;;;;;;;;;;;;;;;;5109979;27;19930;-64
2022/04/23 03:21:31;;;;;;;;;;;;;;;;;;5109828;28;19924;-64
2022/04/23 03:23:58;;;;;;;;;;;;;;;;;;5110413;28;19928;-64
2022/04/23 03:26:24;;;;;;;;;;;;;;;;;;5110081;28;19932;-66
2022/04/23 03:28:50;;;;;;;;;;;;;;;;;;5113813;27;20291;-65
2022/04/23 03:31:16;;;;;;;;;;;;;;;;;;5111228;27;20015;-66
2022/04/23 03:33:42;;;;;;;;;;;;;;;;;;5110117;28;19931;-66
2022/04/23 03:36:09;;;;;;;;;;;;;;;;;;5114765;27;19923;-66
2022/04/23 03:38:36;;;;;;;;;;;;;;;;;;5110447;28;20352;-65
2022/04/23 03:41:02;;;;;;;;;;;;;;;;;;5110315;28;19931;-64
2022/04/23 03:43:30;;;;;;;;;;;;;;;;;;5103241;28;20496;-64
2022/04/23 03:45:56;;;;;;;;;;;;;;;;;;5109763;28;19934;-64
2022/04/23 03:48:22;;;;;;;;;;;;;;;;;;5110308;28;20264;-65
2022/04/23 03:50:48;;;;;;;;;;;;;;;;;;5110176;28;20387;-64
2022/04/23 03:53:15;;;;;;;;;;;;;;;;;;5122719;28;20404;-64
2022/04/23 03:55:41;;;;;;;;;;;;;;;;;;5121846;28;20507;-65
2022/04/23 03:58:07;;;;;;;;;;;;;;;;;;5126367;28;20135;-63
2022/04/23 04:00:34;;;;;;;;;;;;;;;;;;5119861;28;19981;-64
2022/04/23 04:03:00;;;;;;;;;;;;;;;;;;5124359;27;19970;-63
2022/04/23 04:05:26;;;;;;;;;;;;;;;;;;5125582;28;19931;-63
2022/04/23 04:07:52;;;;;;;;;;;;;;;;;;5116908;28;19935;-66
2022/04/23 04:10:18;;;;;;;;;;;;;;;;;;5118248;28;20280;-66
2022/04/23 04:12:44;;;;;;;;;;;;;;;;;;5114722;28;20250;-65
2022/04/23 04:15:10;;;;;;;;;;;;;;;;;;5122112;27;19928;-65
2022/04/23 04:17:37;;;;;;;;;;;;;;;;;;5111407;28;19971;-65
2022/04/23 04:20:03;;;;;;;;;;;;;;;;;;5105478;28;20066;-64
2022/04/23 04:22:29;;;;;;;;;;;;;;;;;;5110679;27;19936;-64
2022/04/23 04:24:55;;;;;;;;;;;;;;;;;;5099837;28;19924;-64
2022/04/23 04:27:21;;;;;;;;;;;;;;;;;;5109513;28;19958;-64
2022/04/23 04:29:47;;;;;;;;;;;;;;;;;;5105441;28;19923;-67
2022/04/23 04:32:15;;;;;;;;;;;;;;;;;;5108002;28;19935;-59
2022/04/23 04:34:41;;;;;;;;;;;;;;;;;;5103471;28;20022;-60
2022/04/23 04:37:07;;;;;;;;;;;;;;;;;;5108676;28;19923;-60
2022/04/23 04:39:35;;;;;;;;;;;;;;;;;;5109169;28;19923;-60
2022/04/23 04:42:02;;;;;;;;;;;;;;;;;;5108522;28;20380;-60
2022/04/23 04:44:28;;;;;;;;;;;;;;;;;;5105291;28;19924;-61
2022/04/23 04:46:54;;;;;;;;;;;;;;;;;;5108305;28;19931;-61
2022/04/23 04:49:22;;;;;;;;;;;;;;;;;;5105705;28;19928;-62
2022/04/23 04:51:48;;;;;;;;;;;;;;;;;;5109577;28;20172;-60
2022/04/23 04:54:17;;;;;;;;;;;;;;;;;;5111239;28;19924;-61
2022/04/23 04:56:43;;;;;;;;;;;;;;;;;;5111643;28;19941;-62
2022/04/23 04:59:10;;;;;;;;;;;;;;;;;;5112876;28;19935;-61
2022/04/23 05:01:36;;;;;;;;;;;;;;;;;;5110497;28;20299;-63
2022/04/23 05:04:02;;;;;;;;;;;;;;;;;;5110633;28;19924;-59
2022/04/23 05:06:28;;;;;;;;;;;;;;;;;;5112257;28;20341;-60
2022/04/23 05:08:55;;;;;;;;;;;;;;;;;;5113421;28;19931;-60
2022/04/23 05:11:21;;;;;;;;;;;;;;;;;;5112942;28;20019;-60
2022/04/23 05:13:47;;;;;;;;;;;;;;;;;;5104607;28;20121;-60
2022/04/23 05:16:13;;;;;;;;;;;;;;;;;;5109181;28;20297;-60
2022/04/23 05:18:39;;;;;;;;;;;;;;;;;;5096145;28;19924;-61
2022/04/23 05:21:05;;;;;;;;;;;;;;;;;;5109548;28;19931;-62
2022/04/23 05:23:31;;;;;;;;;;;;;;;;;;5112226;28;19934;-62
2022/04/23 05:25:58;;;;;;;;;;;;;;;;;;5113272;28;19923;-62
2022/04/23 05:28:24;;;;;;;;;;;;;;;;;;5103541;28;19923;-61
2022/04/23 05:30:50;;;;;;;;;;;;;;;;;;5110673;27;20298;-61
2022/04/23 05:33:16;;;;;;;;;;;;;;;;;;5105623;27;20415;-62
2022/04/23 05:35:42;;;;;;;;;;;;;;;;;;5113758;27;20408;-62
2022/04/23 05:38:08;;;;;;;;;;;;;;;;;;5102200;27;19924;-62
2022/04/23 05:40:34;;;;;;;;;;;;;;;;;;5107564;27;19974;-64
2022/04/23 05:43:01;;;;;;;;;;;;;;;;;;5109848;27;20317;-65
2022/04/23 05:45:27;;;;;;;;;;;;;;;;;;5101416;28;19937;-63
2022/04/23 05:47:53;;;;;;;;;;;;;;;;;;5109821;28;19928;-62
2022/04/23 05:50:19;;;;;;;;;;;;;;;;;;5114947;27;19936;-66
2022/04/23 05:52:45;;;;;;;;;;;;;;;;;;5108974;28;19924;-65
2022/04/23 05:55:11;;;;;;;;;;;;;;;;;;5105407;27;20127;-66
2022/04/23 05:57:38;;;;;;;;;;;;;;;;;;5107078;28;20272;-64
2022/04/23 06:00:04;;;;;;;;;;;;;;;;;;5111918;28;19923;-65
2022/04/23 06:02:31;;;;;;;;;;;;;;;;;;5111740;28;19924;-65
2022/04/23 06:04:57;;;;;;;;;;;;;;;;;;5111380;28;19923;-65
2022/04/23 06:07:24;;;;;;;;;;;;;;;;;;5112556;28;19935;-66
2022/04/23 06:09:50;;;;;;;;;;;;;;;;;;5111934;28;20385;-65
2022/04/23 06:12:16;;;;;;;;;;;;;;;;;;5109674;28;20300;-65
2022/04/23 06:14:43;;;;;;;;;;;;;;;;;;5111981;27;19927;-65
2022/04/23 06:17:10;;;;;;;;;;;;;;;;;;5112256;27;20277;-65
2022/04/23 06:19:36;;;;;;;;;;;;;;;;;;5106229;28;19924;-68
2022/04/23 06:22:02;;;;;;;;;;;;;;;;;;5112365;28;19927;-72
2022/04/23 06:24:29;;;;;;;;;;;;;;;;;;5107340;27;19983;-72
2022/04/23 06:26:55;;;;;;;;;;;;;;;;;;5110293;28;19923;-72
2022/04/23 06:29:22;;;;;;;;;;;;;;;;;;5109856;28;19930;-72
2022/04/23 06:31:48;;;;;;;;;;;;;;;;;;5097435;28;19923;-72
2022/04/23 06:34:14;;;;;;;;;;;;;;;;;;5113299;28;20368;-72
2022/04/23 06:36:40;;;;;;;;;;;;;;;;;;5108493;28;19967;-70
2022/04/23 06:39:06;;;;;;;;;;;;;;;;;;5113848;28;19963;-71
2022/04/23 06:41:33;;;;;;;;;;;;;;;;;;5113546;28;19924;-70
2022/04/23 06:43:59;;;;;;;;;;;;;;;;;;5108260;28;19924;-71
2022/04/23 06:46:25;;;;;;;;;;;;;;;;;;5099265;28;19975;-66
2022/04/23 06:48:51;;;;;;;;;;;;;;;;;;5110447;28;19924;-69
2022/04/23 06:51:17;;;;;;;;;;;;;;;;;;5104866;28;20032;-69
2022/04/23 06:53:43;;;;;;;;;;;;;;;;;;5091159;28;19924;-69
2022/04/23 06:56:10;;;;;;;;;;;;;;;;;;5101541;28;19927;-69
2022/04/23 06:58:36;;;;;;;;;;;;;;;;;;5109749;28;20416;-67
2022/04/23 07:01:03;;;;;;;;;;;;;;;;;;5103138;28;19928;-69
2022/04/23 07:03:29;;;;;;;;;;;;;;;;;;5109341;28;20002;-69
2022/04/23 07:05:55;;;;;;;;;;;;;;;;;;5103624;28;19924;-69
2022/04/23 07:08:21;;;;;;;;;;;;;;;;;;5109414;28;19932;-69
2022/04/23 07:10:48;;;;;;;;;;;;;;;;;;5105850;28;19950;-69
2022/04/23 07:13:15;;;;;;;;;;;;;;;;;;5106397;28;19927;-69
2022/04/23 07:15:41;;;;;;;;;;;;;;;;;;5109104;28;19927;-69
2022/04/23 07:18:07;;;;;;;;;;;;;;;;;;5109787;28;20403;-69
2022/04/23 07:20:33;;;;;;;;;;;;;;;;;;5106758;28;20296;-69
2022/04/23 07:25:43;;;;;;;;;;;;;;;;;;5110344;28;20026;-69
2022/04/23 07:28:10;;;;;;;;;;;;;;;;;;5104261;28;19924;-69
2022/04/23 07:30:36;;;;;;;;;;;;;;;;;;5110720;28;19931;-69
2022/04/23 07:33:03;;;;;;;;;;;;;;;;;;5102190;28;19934;-69
2022/04/23 07:38:13;;;;;;;;;;;;;;;;;;5111460;28;20018;-68
2022/04/23 07:40:40;;;;;;;;;;;;;;;;;;5108967;28;19992;-69
2022/04/23 07:43:07;;;;;;;;;;;;;;;;;;5101983;28;19928;-69
2022/04/23 07:45:33;;;;;;;;;;;;;;;;;;5108346;28;19935;-69
2022/04/23 07:47:59;;;;;;;;;;;;;;;;;;5111604;28;19936;-69
2022/04/23 07:50:25;;;;;;;;;;;;;;;;;;5109671;28;20372;-69
2022/04/23 07:52:51;;;;;;;;;;;;;;;;;;5110612;28;20277;-69
2022/04/23 07:55:17;;;;;;;;;;;;;;;;;;5110638;28;19934;-69
2022/04/23 07:57:44;;;;;;;;;;;;;;;;;;5100683;28;19924;-68
2022/04/23 08:00:10;;;;;;;;;;;;;;;;;;5106291;28;19924;-68
2022/04/23 08:02:36;;;;;;;;;;;;;;;;;;5102494;28;19931;-68
2022/04/23 08:05:03;;;;;;;;;;;;;;;;;;5105504;28;19928;-68
2022/04/23 08:07:29;;;;;;;;;;;;;;;;;;5110127;28;19931;-68
2022/04/23 08:09:55;;;;;;;;;;;;;;;;;;5110063;28;19935;-68
2022/04/23 08:12:21;;;;;;;;;;;;;;;;;;5107078;28;19924;-68
2022/04/23 08:14:47;;;;;;;;;;;;;;;;;;5104655;28;20133;-68
2022/04/23 08:17:13;;;;;;;;;;;;;;;;;;5107259;28;20288;-68
2022/04/23 08:19:39;;;;;;;;;;;;;;;;;;5107523;28;19928;-68
2022/04/23 08:22:06;;;;;;;;;;;;;;;;;;5109667;28;19924;-68
2022/04/23 08:24:32;;;;;;;;;;;;;;;;;;5109227;27;20350;-68
2022/04/23 08:26:58;;;;;;;;;;;;;;;;;;5110128;28;20066;-68
2022/04/23 08:32:08;;;;;;;;;;;;;;;;;;5104549;28;19918;-68
2022/04/23 08:34:34;;;;;;;;;;;;;;;;;;5117765;27;19924;-68
2022/04/23 08:37:00;;;;;;;;;;;;;;;;;;5108222;28;20022;-68
2022/04/23 08:39:28;;;;;;;;;;;;;;;;;;5108195;28;19931;-68
2022/04/23 08:41:54;;;;;;;;;;;;;;;;;;5104243;28;19993;-68
2022/04/23 08:44:21;;;;;;;;;;;;;;;;;;5108499;28;20092;-68
2022/04/23 08:46:47;;;;;;;;;;;;;;;;;;5107582;28;19928;-67
2022/04/23 08:49:14;;;;;;;;;;;;;;;;;;5109223;28;20379;-68
2022/04/23 08:51:40;;;;;;;;;;;;;;;;;;5100864;28;19924;-68
2022/04/23 08:54:07;;;;;;;;;;;;;;;;;;5116357;28;20399;-68
2022/04/23 08:56:33;;;;;;;;;;;;;;;;;;5104816;28;19928;-67
2022/04/23 08:58:59;;;;;;;;;;;;;;;;;;5099400;22;19978;-71
2022/04/23 09:01:26;;;;;;;;;;;;;;;;;;5069619;28;19925;-72
2022/04/23 09:03:52;;;;;;;;;;;;;;;;;;5072149;28;19975;-71
2022/04/23 09:06:18;;;;;;;;;;;;;;;;;;5062690;28;19932;-71
2022/04/23 09:08:44;;;;;;;;;;;;;;;;;;5050644;28;20263;-72
2022/04/23 09:11:12;;;;;;;;;;;;;;;;;;5039360;28;19932;-71
2022/04/23 09:13:38;;;;;;;;;;;;;;;;;;5041573;28;19948;-71
2022/04/23 09:24:16;;;;;;;;;;;;;;;;;;5055004;28;19920;-72
2022/04/23 09:26:42;;;;;;;;;;;;;;;;;;5058856;28;19932;-71
2022/04/23 09:29:09;;;;;;;;;;;;;;;;;;5061022;28;19924;-71
2022/04/23 09:31:35;;;;;;;;;;;;;;;;;;5059637;28;19924;-71
2022/04/23 09:34:01;;;;;;;;;;;;;;;;;;5048780;28;19925;-72
2022/04/23 09:36:27;;;;;;;;;;;;;;;;;;5057642;28;19932;-72
2022/04/23 09:38:54;;;;;;;;;;;;;;;;;;5059535;28;19929;-73
2022/04/23 09:41:20;;;;;;;;;;;;;;;;;;5059759;28;20416;-72
2022/04/23 09:43:48;;;;;;;;;;;;;;;;;;5060324;28;20454;-73
2022/04/23 09:46:14;;;;;;;;;;;;;;;;;;5053203;28;20407;-73
2022/04/23 09:48:43;;;;;;;;;;;;;;;;;;5059400;28;19944;-71
2022/04/23 09:51:09;;;;;;;;;;;;;;;;;;5054224;28;19925;-73
2022/04/23 09:53:35;;;;;;;;;;;;;;;;;;5064487;28;20382;-73
2022/04/23 09:56:04;;;;;;;;;;;;;;;;;;5058854;28;19928;-71
2022/04/23 09:58:31;;;;;;;;;;;;;;;;;;5057504;28;20431;-74
2022/04/23 10:00:57;;;;;;;;;;;;;;;;;;5056900;28;19924;-72
2022/04/23 10:03:23;;;;;;;;;;;;;;;;;;5050575;28;19925;-72
2022/04/23 10:05:49;;;;;;;;;;;;;;;;;;5054423;28;19940;-72
2022/04/23 10:08:15;;;;;;;;;;;;;;;;;;5064019;28;19932;-71
2022/04/23 10:10:42;;;;;;;;;;;;;;;;;;5056412;28;19925;-72
2022/04/23 10:13:08;;;;;;;;;;;;;;;;;;5057841;28;19924;-72
2022/04/23 10:15:34;;;;;;;;;;;;;;;;;;5060926;28;19940;-72
2022/04/23 10:18:00;;;;;;;;;;;;;;;;;;5059626;28;19937;-72
2022/04/23 10:20:28;;;;;;;;;;;;;;;;;;5052851;28;20316;-72
2022/04/23 10:22:54;;;;;;;;;;;;;;;;;;5058067;28;19975;-72
2022/04/23 10:25:22;;;;;;;;;;;;;;;;;;5050618;28;19933;-72
2022/04/23 10:27:48;;;;;;;;;;;;;;;;;;5064833;28;19931;-72
2022/04/23 10:30:15;;;;;;;;;;;;;;;;;;5072444;28;20011;-71
2022/04/23 10:32:41;;;;;;;;;;;;;;;;;;5050541;28;20067;-73
2022/04/23 10:35:07;;;;;;;;;;;;;;;;;;5052658;28;19971;-73
2022/04/23 10:37:33;;;;;;;;;;;;;;;;;;5055984;28;19931;-73
2022/04/23 10:40:00;;;;;;;;;;;;;;;;;;5067171;28;20384;-73
2022/04/23 10:42:26;;;;;;;;;;;;;;;;;;5055383;28;19925;-73
2022/04/23 10:44:54;;;;;;;;;;;;;;;;;;5055708;28;19925;-72
2022/04/23 10:47:20;;;;;;;;;;;;;;;;;;5051226;28;20294;-72
2022/04/23 10:49:46;;;;;;;;;;;;;;;;;;5036872;28;20027;-75
2022/04/23 10:52:12;;;;;;;;;;;;;;;;;;5039121;28;20019;-72
2022/04/23 10:54:39;;;;;;;;;;;;;;;;;;5050803;28;19948;-74
2022/04/23 10:57:05;;;;;;;;;;;;;;;;;;5044087;28;19924;-72
2022/04/23 10:59:31;;;;;;;;;;;;;;;;;;5047766;28;19936;-72
2022/04/23 11:01:57;;;;;;;;;;;;;;;;;;5051172;28;19925;-73
2022/04/23 11:04:23;;;;;;;;;;;;;;;;;;5046298;28;20015;-73
2022/04/23 11:12:26;;;;;;;;;;;;;;;;;;5049972;28;19920;-72
2022/04/23 11:14:52;;;;;;;;;;;;;;;;;;5052751;28;20332;-72
2022/04/23 11:17:18;;;;;;;;;;;;;;;;;;5042106;28;19925;-72
2022/04/23 11:19:45;;;;;;;;;;;;;;;;;;5040977;28;19937;-73
2022/04/23 11:22:12;;;;;;;;;;;;;;;;;;5038553;28;20544;-74
2022/04/23 11:24:38;;;;;;;;;;;;;;;;;;5040709;28;20380;-72
2022/04/23 11:27:04;;;;;;;;;;;;;;;;;;5047532;28;20413;-73
2022/04/23 11:29:30;;;;;;;;;;;;;;;;;;5046604;28;19929;-72
2022/04/23 11:31:56;;;;;;;;;;;;;;;;;;5045290;28;19933;-73
2022/04/23 11:34:23;;;;;;;;;;;;;;;;;;5041233;28;19968;-72
2022/04/23 11:36:49;;;;;;;;;;;;;;;;;;5060765;28;19978;-73
2022/04/23 11:39:15;;;;;;;;;;;;;;;;;;5059515;28;19994;-73
2022/04/23 11:41:42;;;;;;;;;;;;;;;;;;5048228;28;19925;-73
2022/04/23 11:44:08;;;;;;;;;;;;;;;;;;5057962;28;19925;-73
2022/04/23 11:46:34;;;;;;;;;;;;;;;;;;5066129;28;19999;-73
2022/04/23 11:49:00;;;;;;;;;;;;;;;;;;5045301;28;19932;-74
2022/04/23 11:51:27;;;;;;;;;;;;;;;;;;5057182;28;19925;-73
2022/04/23 11:53:55;;;;;;;;;;;;;;;;;;5051070;28;19925;-72
2022/04/23 11:56:21;;;;;;;;;;;;;;;;;;5052011;28;20075;-73
2022/04/23 11:58:47;;;;;;;;;;;;;;;;;;5048993;28;19954;-73
2022/04/23 12:01:13;;;;;;;;;;;;;;;;;;5053899;28;19936;-73
2022/04/23 12:03:40;;;;;;;;;;;;;;;;;;5044571;28;19933;-72
2022/04/23 12:06:06;;;;;;;;;;;;;;;;;;5047375;28;19925;-72
2022/04/23 12:08:32;;;;;;;;;;;;;;;;;;5045866;28;19925;-73
2022/04/23 12:10:58;;;;;;;;;;;;;;;;;;5042995;28;19932;-73
2022/04/23 12:13:24;;;;;;;;;;;;;;;;;;5044070;28;19925;-73
2022/04/23 12:15:51;;;;;;;;;;;;;;;;;;5048162;28;20306;-72
2022/04/23 12:18:19;;;;;;;;;;;;;;;;;;5059458;28;19978;-72
2022/04/23 12:20:45;;;;;;;;;;;;;;;;;;5053000;28;20374;-72
2022/04/23 12:23:11;;;;;;;;;;;;;;;;;;5041916;28;19951;-72
2022/04/23 12:25:38;;;;;;;;;;;;;;;;;;5055228;28;19955;-73
2022/04/23 12:40:43;;;;;;;;;;;;;;;;;;5044747;28;19925;-73
2022/04/23 12:41:46;;;;;;;;;;;;;;;;;;5050900;28;19959;-70
2022/04/23 12:44:12;;;;;;;;;;;;;;;;;;5044864;28;19936;-72
2022/04/23 12:46:38;;;;;;;;;;;;;;;;;;5049989;28;19931;-70
2022/04/23 12:49:04;;;;;;;;;;;;;;;;;;5049293;28;19925;-71
2022/04/23 12:51:31;;;;;;;;;;;;;;;;;;5057620;28;20176;-70
2022/04/23 12:53:57;;;;;;;;;;;;;;;;;;5057318;28;19933;-70
2022/04/23 12:56:23;;;;;;;;;;;;;;;;;;5057485;28;19925;-73
2022/04/23 12:58:49;;;;;;;;;;;;;;;;;;5059197;28;19955;-73
2022/04/23 13:01:17;;;;;;;;;;;;;;;;;;5055301;28;19993;-73
2022/04/23 13:03:44;;;;;;;;;;;;;;;;;;5045660;28;20447;-72
2022/04/23 13:08:57;;;;;;;;;;;;;;;;;;5043080;28;20423;-73
2022/04/23 13:11:27;;;;;;;;;;;;;;;;;;5050869;28;19924;-70
2022/04/23 13:13:54;;;;;;;;;;;;;;;;;;5047389;28;19929;-71
2022/04/23 13:16:20;;;;;;;;;;;;;;;;;;5054635;28;19936;-71
2022/04/23 13:18:46;;;;;;;;;;;;;;;;;;5047666;28;19935;-72
2022/04/23 13:21:13;;;;;;;;;;;;;;;;;;5046416;28;20402;-71
2022/04/23 13:23:39;;;;;;;;;;;;;;;;;;5044568;28;20023;-71
2022/04/23 13:26:05;;;;;;;;;;;;;;;;;;5050304;28;19999;-71
2022/04/23 13:28:32;;;;;;;;;;;;;;;;;;5061914;28;20285;-71
2022/04/23 13:30:58;;;;;;;;;;;;;;;;;;5049909;28;19940;-70
2022/04/23 13:33:24;;;;;;;;;;;;;;;;;;5060553;28;19933;-71
2022/04/23 13:35:50;;;;;;;;;;;;;;;;;;5056405;28;20397;-73
2022/04/23 13:38:17;;;;;;;;;;;;;;;;;;5060952;28;19933;-71
2022/04/23 13:40:43;;;;;;;;;;;;;;;;;;5059190;28;19998;-71
2022/04/23 13:43:09;;;;;;;;;;;;;;;;;;5048936;28;19929;-71
2022/04/23 13:45:35;;;;;;;;;;;;;;;;;;5041875;28;20467;-70
2022/04/23 13:48:02;;;;;;;;;;;;;;;;;;5054677;28;20381;-71
2022/04/23 13:50:28;;;;;;;;;;;;;;;;;;5054267;28;19929;-71
2022/04/23 13:52:54;;;;;;;;;;;;;;;;;;5059510;28;19932;-72
2022/04/23 13:55:20;;;;;;;;;;;;;;;;;;5054460;28;19933;-72
2022/04/23 13:57:46;;;;;;;;;;;;;;;;;;5058043;28;19991;-72
2022/04/23 14:00:12;;;;;;;;;;;;;;;;;;5061537;28;19936;-72
2022/04/23 14:10:50;;;;;;;;;;;;;;;;;;5054104;28;19923;-73
2022/04/23 14:13:18;;;;;;;;;;;;;;;;;;5048703;28;19928;-72
2022/04/23 14:15:44;;;;;;;;;;;;;;;;;;5049503;28;19925;-73
2022/04/23 14:18:13;;;;;;;;;;;;;;;;;;5040942;28;20297;-73
2022/04/23 14:20:39;;;;;;;;;;;;;;;;;;5047383;28;20530;-73
2022/04/23 14:23:05;;;;;;;;;;;;;;;;;;5050356;28;20282;-72
2022/04/23 14:25:32;;;;;;;;;;;;;;;;;;5052129;28;20423;-73
2022/04/23 14:28:00;;;;;;;;;;;;;;;;;;5050343;28;20327;-72
2022/04/23 14:30:26;;;;;;;;;;;;;;;;;;5037368;28;20396;-72
2022/04/23 14:32:53;;;;;;;;;;;;;;;;;;5047876;28;19931;-73
2022/04/23 14:35:19;;;;;;;;;;;;;;;;;;5031462;28;19925;-72
2022/04/23 14:37:45;;;;;;;;;;;;;;;;;;5044624;28;20292;-72
2022/04/23 14:40:11;;;;;;;;;;;;;;;;;;5041382;28;19928;-71
2022/04/23 14:42:39;;;;;;;;;;;;;;;;;;5038127;28;20190;-71
2022/04/23 14:45:05;;;;;;;;;;;;;;;;;;5046720;28;19935;-72
2022/04/23 14:47:32;;;;;;;;;;;;;;;;;;5049780;28;19932;-73
2022/04/23 14:49:58;;;;;;;;;;;;;;;;;;5045230;28;19929;-71
2022/04/23 14:55:09;;;;;;;;;;;;;;;;;;5032826;28;20288;-72
2022/04/23 14:57:35;;;;;;;;;;;;;;;;;;5039323;28;19987;-72
2022/04/23 15:00:01;;;;;;;;;;;;;;;;;;5086725;22;20311;-69
2022/04/23 15:02:28;;;;;;;;;;;;;;;;;;5088983;28;20027;-69
2022/04/23 15:04:54;;;;;;;;;;;;;;;;;;5081798;28;19931;-69
2022/04/23 15:07:20;;;;;;;;;;;;;;;;;;5065347;28;20385;-69
2022/04/23 15:09:47;;;;;;;;;;;;;;;;;;5058361;28;19928;-69
2022/04/23 15:12:13;;;;;;;;;;;;;;;;;;5062608;28;19944;-69
2022/04/23 15:14:39;;;;;;;;;;;;;;;;;;5057935;28;19924;-68
2022/04/23 15:17:05;;;;;;;;;;;;;;;;;;5057760;28;19932;-69
2022/04/23 15:19:32;;;;;;;;;;;;;;;;;;5060756;28;20027;-69
2022/04/23 15:21:58;;;;;;;;;;;;;;;;;;5057664;28;19939;-69
2022/04/23 15:24:24;;;;;;;;;;;;;;;;;;5059652;28;19929;-69
2022/04/23 15:26:51;;;;;;;;;;;;;;;;;;5067667;28;20268;-69
2022/04/23 15:29:17;;;;;;;;;;;;;;;;;;5056629;28;19933;-69
2022/04/23 15:31:44;;;;;;;;;;;;;;;;;;5063296;28;19924;-68
2022/04/23 15:34:12;;;;;;;;;;;;;;;;;;5057147;28;19950;-69
2022/04/23 15:36:38;;;;;;;;;;;;;;;;;;5063188;28;19932;-69
2022/04/23 15:39:05;;;;;;;;;;;;;;;;;;5048925;28;19928;-69
2022/04/23 15:41:32;;;;;;;;;;;;;;;;;;5044805;28;20282;-69
2022/04/23 15:43:58;;;;;;;;;;;;;;;;;;5062984;28;19928;-69
2022/04/23 15:46:25;;;;;;;;;;;;;;;;;;5064721;28;19924;-68
2022/04/23 15:48:51;;;;;;;;;;;;;;;;;;5063176;28;19928;-68
2022/04/23 15:51:17;;;;;;;;;;;;;;;;;;5060378;28;20308;-69
2022/04/23 15:53:43;;;;;;;;;;;;;;;;;;5063664;28;20008;-68
2022/04/23 15:56:12;;;;;;;;;;;;;;;;;;5061750;28;19943;-69
2022/04/23 15:58:38;;;;;;;;;;;;;;;;;;5065526;28;20349;-69
2022/04/23 16:01:04;;;;;;;;;;;;;;;;;;5064614;28;20389;-69
2022/04/23 16:03:32;;;;;;;;;;;;;;;;;;5057790;28;20309;-68
2022/04/23 16:05:58;;;;;;;;;;;;;;;;;;5056994;28;19970;-69
2022/04/23 16:08:25;;;;;;;;;;;;;;;;;;5067200;28;19943;-69
2022/04/23 16:10:52;;;;;;;;;;;;;;;;;;5067696;28;19928;-68
2022/04/23 16:13:19;;;;;;;;;;;;;;;;;;5059188;28;20380;-69
2022/04/23 16:15:45;;;;;;;;;;;;;;;;;;5057325;28;20277;-68
2022/04/23 16:18:11;;;;;;;;;;;;;;;;;;5062545;28;19925;-66
2022/04/23 16:20:37;;;;;;;;;;;;;;;;;;5063888;28;19925;-68
2022/04/23 16:23:05;;;;;;;;;;;;;;;;;;5059633;28;19956;-68
2022/04/23 16:25:32;;;;;;;;;;;;;;;;;;5053296;28;19977;-69
2022/04/23 16:27:58;;;;;;;;;;;;;;;;;;5061914;28;19925;-69
2022/04/23 16:30:24;;;;;;;;;;;;;;;;;;5065083;28;19924;-68
2022/04/23 16:32:50;;;;;;;;;;;;;;;;;;5061170;28;20409;-68
2022/04/23 16:35:16;;;;;;;;;;;;;;;;;;5047612;28;19931;-68
2022/04/23 16:48:38;;;;;;;;;;;;;;;;;;5053852;28;19968;-68
2022/04/23 16:51:04;;;;;;;;;;;;;;;;;;5048670;28;19940;-68
2022/04/23 16:53:31;;;;;;;;;;;;;;;;;;5051128;28;19924;-68
2022/04/23 16:55:57;;;;;;;;;;;;;;;;;;5055093;28;19925;-67
2022/04/23 16:58:23;;;;;;;;;;;;;;;;;;5050267;28;19929;-68
2022/04/23 17:00:49;;;;;;;;;;;;;;;;;;5050566;28;19924;-68
2022/04/23 17:03:15;;;;;;;;;;;;;;;;;;5061224;28;20513;-68
2022/04/23 17:05:42;;;;;;;;;;;;;;;;;;5059900;28;19925;-68
2022/04/23 17:08:08;;;;;;;;;;;;;;;;;;4701653;28;10000417;-68
2022/04/23 17:10:34;;;;;;;;;;;;;;;;;;5061128;28;19931;-68
2022/04/23 17:13:00;;;;;;;;;;;;;;;;;;5057512;28;20273;-67
2022/04/23 17:15:26;;;;;;;;;;;;;;;;;;5050690;28;19947;-69
2022/04/23 17:17:52;;;;;;;;;;;;;;;;;;5058795;28;19931;-69
2022/04/23 17:20:19;;;;;;;;;;;;;;;;;;5054310;28;19954;-69
2022/04/23 17:22:45;;;;;;;;;;;;;;;;;;5048418;28;19997;-69
2022/04/23 17:25:12;;;;;;;;;;;;;;;;;;5063180;28;19928;-68
2022/04/23 17:27:38;;;;;;;;;;;;;;;;;;5061680;28;19929;-68
2022/04/23 17:30:04;;;;;;;;;;;;;;;;;;5054351;28;19936;-68
2022/04/23 17:32:30;;;;;;;;;;;;;;;;;;5046831;28;19935;-69
2022/04/23 17:34:56;;;;;;;;;;;;;;;;;;5055235;28;19955;-68
2022/04/23 17:37:22;;;;;;;;;;;;;;;;;;5048290;28;19936;-68